Latest Weather Observations for Pallamana

IDS60901

Issued at 8:41 pm CST Wednesday 19 September 2018 (issued every 10 minutes, with the page automatically refreshed every 10 minutes)

About weather observations | Map of Adelaide area stations | Latest observations for Adelaide area | Other Formats
Station Details ID: 024584 Name: PALLAMANA AERODROME Lat: -35.06 Lon: 139.23 Height: 45.0 m
Data from the previous 72 hours. | See also: Recent months at Pallamana
Date/Time
CST
Temp
°C
App
Temp
°C
Dew
Point
°C
Rel
Hum
%
Delta-T
°C
Wind Press
QNH
hPa
Press
MSL
hPa
Rain since
9am
mm
Dir  Spd
km/h
Gust
km/h
Spd
kts
Gust
kts
19/08:30pm 8.7 6.4 7.6 93 0.5 WNW 9 11 5 6 1020.8 1020.8 1.6
19/08:00pm 8.5 6.1 7.2 91 0.6 WNW 9 11 5 6 1020.8 1020.8 1.6
19/07:30pm 9.4 7.6 7.9 90 0.7 WSW 7 9 4 5 1020.5 1020.5 1.6
19/07:00pm 10.0 7.9 8.4 90 0.8 SW 9 11 5 6 1020.3 1020.3 1.6
19/06:30pm 10.1 7.9 8.0 87 1.0 SW 9 11 5 6 1020.1 1020.1 1.4
19/06:00pm 10.0 7.5 8.4 90 0.8 WSW 11 13 6 7 1019.9 1019.9 1.4
19/05:30pm 10.2 6.9 8.1 87 1.0 SW 15 20 8 11 1019.8 1019.8 0.6
19/05:00pm 10.5 6.8 8.0 84 1.2 SSW 17 22 9 12 1019.3 1019.3 0.2
19/04:30pm 11.7 7.5 7.3 74 2.1 SSW 19 26 10 14 1018.7 1018.7 0.0
19/04:00pm 13.7 8.2 3.8 51 4.5 WSW 22 35 12 19 1018.2 1018.2 0.0
19/03:30pm 15.4 8.1 -0.3 34 6.6 WSW 28 35 15 19 1017.9 1017.9 0.0
19/03:00pm 16.7 10.3 0.9 34 6.9 WSW 24 33 13 18 1017.9 1017.9 0.0
19/02:30pm 16.4 9.9 0.4 33 6.9 WSW 24 37 13 20 1018.0 1018.0 0.0
19/02:00pm 16.1 8.7 -0.5 32 7.0 WSW 28 48 15 26 1018.1 1018.1 0.0
19/01:54pm 16.6 8.7 -1.8 28 7.6 WSW 30 48 16 26 1018.0 1018.0 0.0
19/01:30pm 16.4 9.0 -0.7 31 7.2 W 28 44 15 24 1018.2 1018.2 0.0
19/01:00pm 16.3 8.8 -1.2 30 7.3 W 28 41 15 22 1018.2 1018.2 0.0
19/12:30pm 15.8 8.6 -1.8 30 7.2 WSW 26 37 14 20 1018.4 1018.4 0.0
19/12:00pm 15.5 7.9 -2.0 30 7.1 WSW 28 37 15 20 1018.5 1018.5 0.0
19/11:30am 15.6 8.0 -1.8 30 7.1 WSW 28 35 15 19 1018.4 1018.4 0.0
19/11:00am 15.2 7.2 -2.5 29 7.1 WSW 30 39 16 21 1018.5 1018.5 0.0
19/10:30am 15.5 9.0 0.3 35 6.5 WSW 24 30 13 16 1018.6 1018.6 0.0
19/10:00am 14.1 7.7 0.7 40 5.7 WSW 24 35 13 19 1018.7 1018.7 0.0
19/09:30am 13.3 7.0 1.4 44 5.1 W 24 37 13 20 1018.8 1018.8 0.0
19/09:00am 13.5 7.2 1.7 44 5.1 WSW 24 33 13 18 1018.7 1018.7 0.0
19/08:30am 12.5 6.8 2.7 51 4.3 W 22 32 12 17 1018.5 1018.5 0.0
19/08:00am 11.3 6.6 3.3 58 3.5 WNW 17 24 9 13 1018.2 1018.2 0.0
19/07:30am 9.3 5.3 3.0 65 2.7 WNW 13 20 7 11 1017.9 1017.9 0.0
19/07:00am 7.1 2.6 2.2 71 2.0 WNW 15 17 8 9 1017.4 1017.4 0.0
19/06:30am 6.0 1.1 2.1 76 1.6 WNW 17 20 9 11 1017.1 1017.1 0.0
19/06:00am 5.7 1.5 1.7 75 1.6 WNW 13 17 7 9 1016.8 1016.8 0.0
19/05:30am 3.9 -0.4 1.1 82 1.1 NW 13 15 7 8 1016.6 1016.6 0.0
19/05:00am 4.4 0.1 1.3 80 1.2 WNW 13 15 7 8 1016.3 1016.3 0.0
19/04:30am 5.9 1.4 1.9 75 1.6 WNW 15 19 8 10 1015.9 1015.9 0.0
19/04:00am 5.8 1.3 2.1 77 1.5 WNW 15 19 8 10 1015.7 1015.7 0.0
19/03:30am 5.3 1.3 2.6 83 1.1 WNW 13 15 7 8 1015.7 1015.7 0.0
19/03:00am 1.1 -2.3 -0.9 86 0.7 NW 7 9 4 5 1015.6 1015.6 0.0
19/02:55am 2.2 -1.2 -0.3 83 0.9 WNW 7 9 4 5 1015.6 1015.6 0.0
19/02:30am 7.3 3.7 2.8 73 1.9 W 11 15 6 8 1015.7 1015.7 0.0
19/02:00am 7.6 3.6 2.6 70 2.1 W 13 19 7 10 1015.7 1015.7 0.0
19/01:30am 7.1 3.0 2.5 72 1.9 WSW 13 19 7 10 1016.0 1016.0 0.0
19/01:00am 7.6 3.2 2.6 70 2.1 W 15 20 8 11 1016.0 1016.0 0.0
19/12:30am 7.7 3.8 3.2 73 1.9 W 13 19 7 10 1016.2 1016.2 0.0
19/12:00am 7.8 3.9 3.3 73 1.9 W 13 17 7 9 1016.0 1016.0 0.0
 
Date/Time
CST
Temp
°C
App
Temp
°C
Dew
Point
°C
Rel
Hum
%
Delta-T
°C
Wind Press
QNH
hPa
Press
MSL
hPa
Rain since
9am
mm
Dir  Spd
km/h
Gust
km/h
Spd
kts
Gust
kts
18/11:30pm 8.3 4.1 3.7 73 2.0 W 15 20 8 11 1016.0 1016.0 0.0
18/11:00pm 8.3 4.0 3.1 70 2.2 W 15 20 8 11 1016.0 1016.0 0.0
18/10:30pm 8.8 4.0 2.7 65 2.6 W 17 24 9 13 1015.9 1015.9 0.0
18/10:00pm 8.7 5.0 4.4 74 1.9 WNW 13 19 7 10 1015.8 1015.8 0.0
18/09:30pm 9.2 5.0 3.9 69 2.3 WNW 15 24 8 13 1015.8 1015.8 0.0
18/09:00pm 9.4 5.2 3.7 67 2.5 WNW 15 20 8 11 1015.7 1015.7 0.0
18/08:30pm 10.2 4.9 2.8 60 3.2 W 20 32 11 17 1015.5 1015.5 0.0
18/08:00pm 10.5 6.0 2.3 57 3.5 W 15 22 8 12 1015.4 1015.4 0.0
18/07:30pm 10.9 5.8 2.8 57 3.5 W 19 30 10 16 1015.0 1015.0 0.0
18/07:00pm 11.2 6.8 2.7 56 3.7 W 15 20 8 11 1014.6 1014.6 0.0
18/06:30pm 11.7 7.6 2.5 53 4.0 W 13 17 7 9 1014.3 1014.3 0.0
18/06:00pm 12.5 7.5 1.5 47 4.7 W 17 24 9 13 1013.9 1013.9 0.0
18/05:30pm 13.4 5.7 2.2 46 4.9 WSW 32 41 17 22 1013.5 1013.5 0.0
18/05:00pm 14.3 7.2 1.1 40 5.7 W 28 43 15 23 1013.0 1013.0 0.0
18/04:32pm 14.9 6.1 1.4 40 5.9 WSW 37 56 20 30 1012.5 1012.5 0.0
18/04:30pm 14.9 6.5 1.4 40 5.9 W 35 48 19 26 1012.5 1012.5 0.0
18/04:00pm 14.7 7.3 3.8 48 5.0 W 32 56 17 30 1012.2 1012.2 0.0
18/03:59pm 15.0 8.0 3.9 47 5.1 W 30 56 16 30 1012.3 1012.3 0.0
18/03:30pm 14.7 6.6 5.2 53 4.5 W 37 50 20 27 1012.1 1012.1 0.0
18/03:00pm 14.6 6.7 4.2 49 4.8 W 35 54 19 29 1012.2 1012.2 0.0
18/02:31pm 13.8 5.6 5.0 55 4.1 W 37 56 20 30 1012.2 1012.2 0.0
18/02:30pm 13.9 5.3 4.9 54 4.2 W 39 56 21 30 1012.2 1012.2 0.0
18/02:15pm 15.1 7.2 4.1 47 5.1 W 35 48 19 26 1012.0 1012.0 0.0
18/02:00pm 15.7 8.5 3.2 43 5.7 W 30 46 16 25 1012.0 1012.0 0.0
18/01:35pm 15.3 7.8 6.2 54 4.4 W 35 56 19 30 1012.0 1012.0 0.0
18/01:30pm 16.8 9.0 5.1 46 5.6 W 35 46 19 25 1011.8 1011.8 0.0
18/01:00pm 16.8 8.8 3.7 41 6.1 WNW 35 57 19 31 1011.9 1011.9 0.0
18/12:33pm 17.7 9.9 3.0 37 6.8 WNW 33 52 18 28 1011.9 1011.9 0.0
18/12:30pm 17.9 10.1 3.0 37 6.9 WNW 33 48 18 26 1011.9 1011.9 0.0
18/12:00pm 17.2 9.2 1.5 34 7.0 WNW 33 52 18 28 1012.0 1012.0 0.0
18/11:30am 18.3 10.9 -0.4 28 8.1 WNW 28 46 15 25 1012.4 1012.4 0.0
18/11:25am 17.4 10.0 -1.0 28 7.8 WNW 28 46 15 25 1012.3 1012.3 0.0
18/11:00am 16.8 9.0 -3.9 24 8.2 W 28 41 15 22 1012.4 1012.4 0.0
18/10:30am 15.6 7.8 -7.7 19 8.4 WNW 26 39 14 21 1012.7 1012.7 0.0
18/10:00am 15.0 7.2 -3.7 27 7.3 WNW 28 43 15 23 1012.6 1012.6 0.0
18/09:44am 16.0 8.7 -0.2 33 6.9 W 28 46 15 25 1012.8 1012.8 0.0
18/09:30am 15.6 9.3 3.6 44 5.5 W 26 37 14 20 1012.5 1012.5 0.0
18/09:00am 14.3 8.3 5.2 54 4.3 W 26 39 14 21 1013.1 1013.1 0.0
18/08:30am 15.0 9.6 6.3 56 4.2 W 24 33 13 18 1012.3 1012.3 0.0
18/08:00am 14.6 9.6 6.3 57 4.0 W 22 33 12 18 1012.0 1012.0 0.0
18/07:51am 14.5 11.6 6.4 58 3.9 WNW 11 32 6 17 1012.3 1012.3 0.0
18/07:30am 9.5 6.9 4.3 70 2.3 N 7 9 4 5 1012.2 1012.2 0.0
18/07:00am 7.8 5.1 2.8 70 2.1 N 6 7 3 4 1011.8 1011.8 0.0
18/06:30am 6.3 3.6 0.4 66 2.3 S 4 6 2 3 1011.6 1011.6 0.0
18/06:00am 7.7 4.4 0.1 58 3.0 WNW 7 7 4 4 1011.3 1011.3 0.0
18/05:30am 11.3 8.1 1.0 49 4.3 WNW 7 9 4 5 1010.9 1011.0 0.0
18/05:00am 11.7 6.6 -5.4 30 6.2 WNW 13 19 7 10 1010.5 1010.6 0.0
18/04:30am 9.2 4.8 -6.1 33 5.3 SSE 9 13 5 7 1010.2 1010.3 0.0
18/04:00am 9.4 5.6 -5.8 33 5.3 ESE 6 15 3 8 1009.6 1009.6 0.0
18/03:30am 8.0 2.8 -6.1 36 4.8 E 13 19 7 10 1009.5 1009.5 0.0
18/03:00am 4.7 0.3 -5.6 47 3.4 SSE 9 13 5 7 1009.0 1009.0 0.0
18/02:30am 6.4 2.7 -4.6 45 3.8 ENE 6 7 3 4 1008.9 1008.9 0.0
18/02:00am 5.0 1.7 -4.0 52 3.1 N 4 6 2 3 1009.4 1009.4 0.0
18/01:30am 4.7 2.0 -2.6 59 2.6 NNW 2 9 1 5 1010.0 1010.0 0.0
18/01:00am 9.0 3.9 -4.8 37 4.9 NNW 13 15 7 8 1010.2 1010.3 0.0
18/12:30am 10.1 4.7 -4.5 35 5.3 NNW 15 19 8 10 1010.5 1010.6 0.0
18/12:00am 9.1 3.4 -3.4 41 4.6 NNW 17 19 9 10 1010.4 1010.5 0.0
 
Date/Time
CST
Temp
°C
App
Temp
°C
Dew
Point
°C
Rel
Hum
%
Delta-T
°C
Wind Press
QNH
hPa
Press
MSL
hPa
Rain since
9am
mm
Dir  Spd
km/h
Gust
km/h
Spd
kts
Gust
kts
17/11:30pm 8.7 3.1 -2.5 45 4.2 NNW 17 20 9 11 1011.3 1011.3 0.0
17/11:00pm 9.1 3.6 -2.3 44 4.3 NNW 17 20 9 11 1011.8 1011.8 0.0
17/10:30pm 9.4 4.2 -2.5 43 4.5 NNW 15 19 8 10 1012.0 1012.0 0.0
17/10:00pm 9.4 3.5 -2.5 43 4.5 NNW 19 20 10 11 1012.2 1012.2 0.0
17/09:30pm 9.7 4.2 -2.4 42 4.6 NNW 17 19 9 10 1012.5 1012.5 0.0
17/09:00pm 9.7 4.2 -2.4 42 4.6 N 17 20 9 11 1012.5 1012.5 0.0
17/08:30pm 10.5 5.0 -2.2 41 4.9 NNW 17 20 9 11 1012.6 1012.6 0.0
17/08:00pm 11.0 6.3 -1.8 41 5.0 N 13 15 7 8 1012.6 1012.6 0.0
17/07:30pm 12.6 7.9 -1.7 37 5.7 NNW 13 15 7 8 1012.4 1012.4 0.0
17/07:00pm 12.0 7.0 -0.9 41 5.2 N 15 15 8 8 1012.3 1012.3 0.0
17/06:30pm 14.4 9.8 -1.2 34 6.4 N 13 15 7 8 1012.5 1012.5 0.0
17/06:00pm 17.0 12.0 -1.4 28 7.7 N 15 17 8 9 1012.4 1012.4 0.0
17/05:30pm 20.3 14.3 -1.9 22 9.5 N 20 28 11 15 1012.5 1012.5 0.0
17/05:00pm 21.1 13.9 -2.3 20 10.0 NNW 26 35 14 19 1012.4 1012.4 0.0
17/04:30pm 21.5 13.4 -3.2 19 10.4 NNW 30 39 16 21 1012.6 1012.6 0.0
17/04:00pm 21.7 13.0 -3.6 18 10.6 NNW 33 43 18 23 1012.7 1012.7 0.0
17/03:30pm 21.8 14.6 -2.0 20 10.3 N 26 35 14 19 1012.8 1012.8 0.0
17/03:00pm 22.0 14.7 -2.9 18 10.6 NNW 26 35 14 19 1013.2 1013.2 0.0
17/02:40pm 22.2 14.6 -2.0 19 10.5 NNW 28 46 15 25 1013.6 1013.6 0.0
17/02:30pm 22.0 14.5 -1.6 20 10.3 N 28 43 15 23 1013.8 1013.8 0.0
17/02:00pm 21.9 13.6 -1.9 20 10.3 NNW 32 46 17 25 1014.2 1014.2 0.0
17/01:30pm 21.4 12.8 -2.6 20 10.2 NNW 33 46 18 25 1015.0 1015.0 0.0
17/01:00pm 20.8 13.6 -1.8 22 9.7 NNW 26 43 14 23 1015.7 1015.7 0.0
17/12:30pm 20.6 12.7 -1.4 22 9.5 NNW 30 43 16 23 1016.4 1016.4 0.0
17/12:00pm 20.7 11.8 -1.6 22 9.6 N 35 48 19 26 1017.0 1017.0 0.0
17/11:30am 19.8 12.4 -0.6 25 8.9 N 28 46 15 25 1017.6 1017.6 0.0
17/11:29am 19.5 12.1 -0.9 25 8.8 N 28 46 15 25 1017.7 1017.7 0.0
17/11:00am 19.6 10.9 -0.7 25 8.8 N 35 48 19 26 1018.3 1018.3 0.0
17/10:30am 18.3 9.8 -1.7 25 8.4 NNW 33 43 18 23 1019.0 1019.0 0.0
17/10:00am 17.9 9.8 -0.2 29 7.8 N 32 39 17 21 1019.3 1019.3 0.0
17/09:30am 16.1 9.5 -0.1 33 6.9 NNE 24 39 13 21 1019.7 1019.7 0.0
17/09:00am 12.7 7.9 2.6 50 4.4 NNE 17 20 9 11 1020.3 1020.3 0.0
17/08:30am 10.5 5.8 3.4 61 3.1 N 17 20 9 11 1020.8 1020.8 0.0
17/08:00am 7.6 3.3 3.4 75 1.8 N 15 17 8 9 1020.7 1020.7 0.0
17/07:30am 4.9 1.3 2.9 87 0.8 N 11 15 6 8 1020.8 1020.8 0.0
17/07:00am 2.9 -1.0 1.3 89 0.6 NW 11 13 6 7 1021.0 1021.0 0.0
17/06:30am 0.9 -3.2 -0.2 92 0.4 N 11 13 6 7 1020.8 1020.8 0.0
17/06:00am 0.3 - - - - N 13 13 7 7 1020.8 1020.8 0.0
17/05:30am -0.3 - - - - N 9 11 5 6 1020.9 1020.9 0.0
17/05:00am 0.1 - - - - N 11 11 6 6 1021.1 1021.1 0.0
17/04:30am 0.8 -3.4 -0.6 90 0.5 N 11 13 6 7 1021.1 1021.1 0.0
17/04:00am -0.1 - - - - N 4 6 2 3 1021.2 1021.2 0.0
17/03:30am 0.7 - - - - N 9 11 5 6 1021.5 1021.5 0.0
17/03:00am -0.9 - - - - NNW 9 11 5 6 1021.4 1021.4 0.0
17/02:30am 1.4 -2.6 0.6 94 0.3 NNW 11 13 6 7 1021.8 1021.8 0.0
17/02:00am 2.8 -1.2 0.7 86 0.8 N 11 13 6 7 1022.1 1022.1 0.0
17/01:30am 2.1 0.1 0.2 87 0.7 CALM 0 0 0 0 1022.7 1022.7 0.0
17/01:00am 2.1 0.3 1.0 92 0.4 CALM 0 0 0 0 1022.8 1022.8 0.0
17/12:30am 3.0 1.2 0.9 86 0.8 CALM 0 0 0 0 1022.9 1022.9 0.0
17/12:00am 3.9 1.0 1.3 83 1.0 N 6 7 3 4 1023.1 1023.1 0.0
 
Date/Time
CST
Temp
°C
App
Temp
°C
Dew
Point
°C
Rel
Hum
%
Delta-T
°C
Wind Press
QNH
hPa
Press
MSL
hPa
Rain since
9am
mm
Dir  Spd
km/h
Gust
km/h
Spd
kts
Gust
kts
16/11:30pm 3.6 0.4 1.0 83 1.0 N 7 9 4 5 1023.6 1023.6 0.0
16/11:00pm 3.8 -0.3 -0.5 73 1.6 NW 11 17 6 9 1023.8 1023.8 0.0
16/10:30pm 5.0 1.5 1.4 77 1.4 WNW 9 11 5 6 1024.0 1024.0 0.0
16/10:00pm 5.4 1.9 1.3 75 1.6 WNW 9 11 5 6 1024.3 1024.3 0.0
16/09:30pm 7.8 3.6 1.9 66 2.4 WNW 13 15 7 8 1024.5 1024.5 0.0
16/09:00pm 8.4 3.8 1.8 63 2.7 WNW 15 17 8 9 1024.5 1024.5 0.0

Latest Capital City Observations: Canberra | Sydney | Melbourne | Brisbane | Adelaide | Perth | Hobart | Darwin

Other Formats:

Comma delimited format used in spreadsheet applications
http://www.bom.gov.au/fwo/IDS60901/IDS60901.95818.axf

JavaScript Object Notation format (JSON) in row-major order
http://www.bom.gov.au/fwo/IDS60901/IDS60901.95818.json